sensor_id;sensor_type;location;lat;lon;timestamp;temperature;humidity
51853;DHT22;37894;53.172;6.598;2023-09-30T00:00:44;11.50;99.90
51853;DHT22;37894;53.172;6.598;2023-09-30T00:05:37;11.80;99.90
51853;DHT22;37894;53.172;6.598;2023-09-30T00:08:06;12.20;99.90
51853;DHT22;37894;53.172;6.598;2023-09-30T00:10:32;11.80;99.90
51853;DHT22;37894;53.172;6.598;2023-09-30T00:12:58;11.60;99.90
51853;DHT22;37894;53.172;6.598;2023-09-30T00:15:24;11.20;99.90
51853;DHT22;37894;53.172;6.598;2023-09-30T00:17:50;12.40;99.90
51853;DHT22;37894;53.172;6.598;2023-09-30T00:22:43;11.30;99.90
51853;DHT22;37894;53.172;6.598;2023-09-30T00:25:09;11.50;99.90
51853;DHT22;37894;53.172;6.598;2023-09-30T00:27:35;11.90;99.90
51853;DHT22;37894;53.172;6.598;2023-09-30T00:30:01;11.30;99.90
51853;DHT22;37894;53.172;6.598;2023-09-30T00:32:28;11.50;99.90
51853;DHT22;37894;53.172;6.598;2023-09-30T00:34:54;12.50;99.90
51853;DHT22;37894;53.172;6.598;2023-09-30T00:39:46;10.80;99.90
51853;DHT22;37894;53.172;6.598;2023-09-30T00:44:39;11.30;99.90
51853;DHT22;37894;53.172;6.598;2023-09-30T00:47:04;11.50;99.90
51853;DHT22;37894;53.172;6.598;2023-09-30T00:49:31;11.20;99.90
51853;DHT22;37894;53.172;6.598;2023-09-30T00:51:58;11.30;99.90
51853;DHT22;37894;53.172;6.598;2023-09-30T00:54:26;11.10;99.90
51853;DHT22;37894;53.172;6.598;2023-09-30T00:56:54;11.40;99.90
51853;DHT22;37894;53.172;6.598;2023-09-30T00:59:23;11.80;99.90
51853;DHT22;37894;53.172;6.598;2023-09-30T01:01:52;11.90;99.90
51853;DHT22;37894;53.172;6.598;2023-09-30T01:09:13;11.30;99.90
51853;DHT22;37894;53.172;6.598;2023-09-30T01:11:40;11.70;99.90
51853;DHT22;37894;53.172;6.598;2023-09-30T01:16:55;10.60;99.90
51853;DHT22;37894;53.172;6.598;2023-09-30T01:21:48;11.30;99.90
51853;DHT22;37894;53.172;6.598;2023-09-30T01:24:17;11.80;99.90
51853;DHT22;37894;53.172;6.598;2023-09-30T01:31:37;11.20;99.90
51853;DHT22;37894;53.172;6.598;2023-09-30T01:34:02;11.20;99.90
51853;DHT22;37894;53.172;6.598;2023-09-30T01:36:28;11.50;99.90
51853;DHT22;37894;53.172;6.598;2023-09-30T01:41:20;11.90;99.90
51853;DHT22;37894;53.172;6.598;2023-09-30T01:43:46;11.30;99.90
51853;DHT22;37894;53.172;6.598;2023-09-30T01:46:12;12.10;99.90
51853;DHT22;37894;53.172;6.598;2023-09-30T01:53:32;11.30;99.90
51853;DHT22;37894;53.172;6.598;2023-09-30T01:55:58;11.50;99.90
51853;DHT22;37894;53.172;6.598;2023-09-30T02:00:51;11.60;99.90
51853;DHT22;37894;53.172;6.598;2023-09-30T02:03:17;11.10;99.90
51853;DHT22;37894;53.172;6.598;2023-09-30T02:05:43;11.50;99.90
51853;DHT22;37894;53.172;6.598;2023-09-30T02:08:09;11.30;99.90
51853;DHT22;37894;53.172;6.598;2023-09-30T02:10:35;11.40;99.90
51853;DHT22;37894;53.172;6.598;2023-09-30T02:13:01;11.30;99.90
51853;DHT22;37894;53.172;6.598;2023-09-30T02:17:53;10.60;99.90
51853;DHT22;37894;53.172;6.598;2023-09-30T02:22:48;10.20;99.90
51853;DHT22;37894;53.172;6.598;2023-09-30T02:25:14;11.20;99.90
51853;DHT22;37894;53.172;6.598;2023-09-30T02:27:41;11.20;99.90
51853;DHT22;37894;53.172;6.598;2023-09-30T02:30:08;11.70;99.90
51853;DHT22;37894;53.172;6.598;2023-09-30T02:32:37;10.70;99.90
51853;DHT22;37894;53.172;6.598;2023-09-30T02:37:33;11.40;99.90
51853;DHT22;37894;53.172;6.598;2023-09-30T02:40:05;11.20;99.90
51853;DHT22;37894;53.172;6.598;2023-09-30T02:42:38;11.40;99.90
51853;DHT22;37894;53.172;6.598;2023-09-30T02:45:05;11.20;99.90
51853;DHT22;37894;53.172;6.598;2023-09-30T02:47:32;11.50;99.90
51853;DHT22;37894;53.172;6.598;2023-09-30T02:52:24;11.20;99.90
51853;DHT22;37894;53.172;6.598;2023-09-30T02:54:50;11.30;99.90
51853;DHT22;37894;53.172;6.598;2023-09-30T02:57:15;10.90;99.90
51853;DHT22;37894;53.172;6.598;2023-09-30T02:59:41;10.60;99.90
51853;DHT22;37894;53.172;6.598;2023-09-30T03:02:07;11.30;99.90
51853;DHT22;37894;53.172;6.598;2023-09-30T03:11:51;12.30;99.90
51853;DHT22;37894;53.172;6.598;2023-09-30T03:24:04;11.40;99.90
51853;DHT22;37894;53.172;6.598;2023-09-30T03:26:30;11.90;99.90
51853;DHT22;37894;53.172;6.598;2023-09-30T03:28:56;12.10;99.90
51853;DHT22;37894;53.172;6.598;2023-09-30T03:33:50;11.30;99.90
51853;DHT22;37894;53.172;6.598;2023-09-30T03:36:16;11.60;99.90
51853;DHT22;37894;53.172;6.598;2023-09-30T03:41:10;11.20;99.90
51853;DHT22;37894;53.172;6.598;2023-09-30T03:51:13;11.30;99.90
51853;DHT22;37894;53.172;6.598;2023-09-30T03:53:46;11.40;99.90
51853;DHT22;37894;53.172;6.598;2023-09-30T03:56:12;11.10;99.90
51853;DHT22;37894;53.172;6.598;2023-09-30T03:58:42;11.20;99.90
51853;DHT22;37894;53.172;6.598;2023-09-30T04:01:09;11.20;99.90
51853;DHT22;37894;53.172;6.598;2023-09-30T04:11:04;11.10;99.90
51853;DHT22;37894;53.172;6.598;2023-09-30T04:15:57;11.60;99.90
51853;DHT22;37894;53.172;6.598;2023-09-30T04:18:25;11.10;99.90
51853;DHT22;37894;53.172;6.598;2023-09-30T04:23:20;11.50;99.90
51853;DHT22;37894;53.172;6.598;2023-09-30T04:28:13;11.40;99.90
51853;DHT22;37894;53.172;6.598;2023-09-30T04:30:41;11.30;99.90
51853;DHT22;37894;53.172;6.598;2023-09-30T04:35:33;11.90;99.90
51853;DHT22;37894;53.172;6.598;2023-09-30T04:38:01;11.30;99.90
51853;DHT22;37894;53.172;6.598;2023-09-30T04:40:27;11.00;99.90
51853;DHT22;37894;53.172;6.598;2023-09-30T04:42:53;11.30;99.90
51853;DHT22;37894;53.172;6.598;2023-09-30T04:45:21;11.50;99.90
51853;DHT22;37894;53.172;6.598;2023-09-30T04:50:14;11.60;99.90
51853;DHT22;37894;53.172;6.598;2023-09-30T04:57:34;11.40;99.90
51853;DHT22;37894;53.172;6.598;2023-09-30T05:00:00;11.00;99.90
51853;DHT22;37894;53.172;6.598;2023-09-30T05:02:27;11.20;99.90
51853;DHT22;37894;53.172;6.598;2023-09-30T05:07:20;11.40;99.90
51853;DHT22;37894;53.172;6.598;2023-09-30T05:09:47;11.60;99.90
51853;DHT22;37894;53.172;6.598;2023-09-30T05:12:13;12.30;99.90
51853;DHT22;37894;53.172;6.598;2023-09-30T05:17:05;10.90;99.90
51853;DHT22;37894;53.172;6.598;2023-09-30T05:19:31;11.50;99.90
51853;DHT22;37894;53.172;6.598;2023-09-30T05:21:57;11.20;99.90
51853;DHT22;37894;53.172;6.598;2023-09-30T05:26:49;11.20;99.90
51853;DHT22;37894;53.172;6.598;2023-09-30T05:31:42;11.70;99.90
51853;DHT22;37894;53.172;6.598;2023-09-30T05:36:34;11.30;99.90
51853;DHT22;37894;53.172;6.598;2023-09-30T05:43:53;11.30;99.90
51853;DHT22;37894;53.172;6.598;2023-09-30T05:46:19;11.00;99.90
51853;DHT22;37894;53.172;6.598;2023-09-30T05:48:44;10.90;99.90
51853;DHT22;37894;53.172;6.598;2023-09-30T05:53:40;11.20;99.90
51853;DHT22;37894;53.172;6.598;2023-09-30T05:56:07;11.50;99.90
51853;DHT22;37894;53.172;6.598;2023-09-30T05:58:33;11.40;99.90
51853;DHT22;37894;53.172;6.598;2023-09-30T06:03:27;11.10;99.90
51853;DHT22;37894;53.172;6.598;2023-09-30T06:05:55;10.90;99.90
51853;DHT22;37894;53.172;6.598;2023-09-30T06:10:49;10.90;99.90
51853;DHT22;37894;53.172;6.598;2023-09-30T06:13:15;11.50;99.90
51853;DHT22;37894;53.172;6.598;2023-09-30T06:15:41;11.40;99.90
51853;DHT22;37894;53.172;6.598;2023-09-30T06:18:08;11.40;99.90
51853;DHT22;37894;53.172;6.598;2023-09-30T06:20:35;11.30;99.90
51853;DHT22;37894;53.172;6.598;2023-09-30T06:23:01;11.30;99.90
51853;DHT22;37894;53.172;6.598;2023-09-30T06:25:27;11.20;99.90
51853;DHT22;37894;53.172;6.598;2023-09-30T06:27:53;11.50;99.90
51853;DHT22;37894;53.172;6.598;2023-09-30T06:30:23;11.70;99.90
51853;DHT22;37894;53.172;6.598;2023-09-30T06:32:56;11.40;99.90
51853;DHT22;37894;53.172;6.598;2023-09-30T06:35:22;11.50;99.90
51853;DHT22;37894;53.172;6.598;2023-09-30T06:37:48;11.70;99.90
51853;DHT22;37894;53.172;6.598;2023-09-30T06:45:08;11.50;99.90
51853;DHT22;37894;53.172;6.598;2023-09-30T06:47:36;11.90;99.90
51853;DHT22;37894;53.172;6.598;2023-09-30T06:50:12;11.50;99.90
51853;DHT22;37894;53.172;6.598;2023-09-30T06:52:42;11.80;99.90
51853;DHT22;37894;53.172;6.598;2023-09-30T06:55:08;11.40;99.90
51853;DHT22;37894;53.172;6.598;2023-09-30T06:57:36;11.20;99.90
51853;DHT22;37894;53.172;6.598;2023-09-30T07:00:13;11.60;99.90
51853;DHT22;37894;53.172;6.598;2023-09-30T07:02:39;12.00;99.90
51853;DHT22;37894;53.172;6.598;2023-09-30T07:05:13;11.40;99.90
51853;DHT22;37894;53.172;6.598;2023-09-30T07:07:40;12.20;99.90
51853;DHT22;37894;53.172;6.598;2023-09-30T07:10:09;12.20;99.90
51853;DHT22;37894;53.172;6.598;2023-09-30T07:12:35;13.10;99.90
51853;DHT22;37894;53.172;6.598;2023-09-30T07:15:05;12.30;99.90
51853;DHT22;37894;53.172;6.598;2023-09-30T07:17:32;12.20;99.90
51853;DHT22;37894;53.172;6.598;2023-09-30T07:19:57;12.60;99.90
51853;DHT22;37894;53.172;6.598;2023-09-30T07:22:23;12.40;99.90
51853;DHT22;37894;53.172;6.598;2023-09-30T07:27:15;12.50;99.90
51853;DHT22;37894;53.172;6.598;2023-09-30T07:29:41;13.70;99.90
51853;DHT22;37894;53.172;6.598;2023-09-30T07:32:07;12.50;99.90
51853;DHT22;37894;53.172;6.598;2023-09-30T07:34:34;12.80;99.90
51853;DHT22;37894;53.172;6.598;2023-09-30T07:41:51;12.50;99.90
51853;DHT22;37894;53.172;6.598;2023-09-30T07:44:17;13.00;99.90
51853;DHT22;37894;53.172;6.598;2023-09-30T07:46:43;12.90;99.90
51853;DHT22;37894;53.172;6.598;2023-09-30T07:49:10;13.30;99.90
51853;DHT22;37894;53.172;6.598;2023-09-30T07:54:03;13.40;99.90
51853;DHT22;37894;53.172;6.598;2023-09-30T08:03:47;12.90;99.90
51853;DHT22;37894;53.172;6.598;2023-09-30T08:06:13;13.70;99.90
51853;DHT22;37894;53.172;6.598;2023-09-30T08:08:39;14.60;99.90
51853;DHT22;37894;53.172;6.598;2023-09-30T08:11:06;13.70;99.90
51853;DHT22;37894;53.172;6.598;2023-09-30T08:13:32;13.70;99.90
51853;DHT22;37894;53.172;6.598;2023-09-30T08:15:59;14.00;99.90
51853;DHT22;37894;53.172;6.598;2023-09-30T08:18:24;13.60;99.90
51853;DHT22;37894;53.172;6.598;2023-09-30T08:20:50;14.50;99.90
51853;DHT22;37894;53.172;6.598;2023-09-30T08:23:16;13.80;99.90
51853;DHT22;37894;53.172;6.598;2023-09-30T08:25:42;14.40;99.90
51853;DHT22;37894;53.172;6.598;2023-09-30T08:28:07;14.60;99.90
51853;DHT22;37894;53.172;6.598;2023-09-30T08:30:35;14.60;99.90
51853;DHT22;37894;53.172;6.598;2023-09-30T08:33:02;14.50;99.90
51853;DHT22;37894;53.172;6.598;2023-09-30T08:35:38;14.00;99.90
51853;DHT22;37894;53.172;6.598;2023-09-30T08:42:57;14.90;99.90
51853;DHT22;37894;53.172;6.598;2023-09-30T08:45:23;16.00;99.90
51853;DHT22;37894;53.172;6.598;2023-09-30T08:47:50;15.10;99.90
51853;DHT22;37894;53.172;6.598;2023-09-30T08:50:16;15.30;99.90
51853;DHT22;37894;53.172;6.598;2023-09-30T08:52:44;16.40;99.90
51853;DHT22;37894;53.172;6.598;2023-09-30T08:55:10;15.70;99.90
51853;DHT22;37894;53.172;6.598;2023-09-30T08:57:38;15.30;99.90
51853;DHT22;37894;53.172;6.598;2023-09-30T09:00:09;15.70;99.90
51853;DHT22;37894;53.172;6.598;2023-09-30T09:02:39;16.30;99.90
51853;DHT22;37894;53.172;6.598;2023-09-30T09:05:05;16.10;99.90
51853;DHT22;37894;53.172;6.598;2023-09-30T09:07:32;15.90;99.90
51853;DHT22;37894;53.172;6.598;2023-09-30T09:10:11;15.50;99.90
51853;DHT22;37894;53.172;6.598;2023-09-30T09:12:40;16.10;99.90
51853;DHT22;37894;53.172;6.598;2023-09-30T09:15:08;16.90;99.90
51853;DHT22;37894;53.172;6.598;2023-09-30T09:17:44;16.30;99.90
51853;DHT22;37894;53.172;6.598;2023-09-30T09:20:12;16.40;99.90
51853;DHT22;37894;53.172;6.598;2023-09-30T09:22:44;16.70;99.90
51853;DHT22;37894;53.172;6.598;2023-09-30T09:25:13;16.60;99.90
51853;DHT22;37894;53.172;6.598;2023-09-30T09:27:39;16.40;99.90
51853;DHT22;37894;53.172;6.598;2023-09-30T09:30:21;16.60;99.90
51853;DHT22;37894;53.172;6.598;2023-09-30T09:32:54;16.50;99.90
51853;DHT22;37894;53.172;6.598;2023-09-30T09:35:21;17.00;99.90
51853;DHT22;37894;53.172;6.598;2023-09-30T09:40:31;16.90;99.90
51853;DHT22;37894;53.172;6.598;2023-09-30T09:42:58;17.50;99.90
51853;DHT22;37894;53.172;6.598;2023-09-30T09:45:26;17.10;99.90
51853;DHT22;37894;53.172;6.598;2023-09-30T09:47:53;16.90;99.90
51853;DHT22;37894;53.172;6.598;2023-09-30T09:50:20;17.20;99.90
51853;DHT22;37894;53.172;6.598;2023-09-30T09:52:48;17.20;99.90
51853;DHT22;37894;53.172;6.598;2023-09-30T09:55:26;17.50;99.90
51853;DHT22;37894;53.172;6.598;2023-09-30T09:57:53;17.50;99.90
51853;DHT22;37894;53.172;6.598;2023-09-30T10:00:22;17.60;99.90
51853;DHT22;37894;53.172;6.598;2023-09-30T10:02:49;17.60;99.90
51853;DHT22;37894;53.172;6.598;2023-09-30T10:05:17;17.60;99.90
51853;DHT22;37894;53.172;6.598;2023-09-30T10:08:05;17.50;99.90
51853;DHT22;37894;53.172;6.598;2023-09-30T10:10:36;17.60;99.90
51853;DHT22;37894;53.172;6.598;2023-09-30T10:13:03;17.70;99.90
51853;DHT22;37894;53.172;6.598;2023-09-30T10:18:09;17.90;99.90
51853;DHT22;37894;53.172;6.598;2023-09-30T10:20:40;17.70;99.90
51853;DHT22;37894;53.172;6.598;2023-09-30T10:23:23;17.80;99.90
51853;DHT22;37894;53.172;6.598;2023-09-30T10:26:14;17.80;99.90
51853;DHT22;37894;53.172;6.598;2023-09-30T10:28:47;18.80;99.90
51853;DHT22;37894;53.172;6.598;2023-09-30T10:31:21;18.00;99.90
51853;DHT22;37894;53.172;6.598;2023-09-30T10:36:40;18.30;99.90
51853;DHT22;37894;53.172;6.598;2023-09-30T10:39:13;17.90;99.90
51853;DHT22;37894;53.172;6.598;2023-09-30T10:46:58;17.70;99.90
51853;DHT22;37894;53.172;6.598;2023-09-30T10:51:55;17.90;99.90
51853;DHT22;37894;53.172;6.598;2023-09-30T10:54:26;17.70;99.90
51853;DHT22;37894;53.172;6.598;2023-09-30T10:56:53;17.90;99.90
51853;DHT22;37894;53.172;6.598;2023-09-30T10:59:23;18.00;99.90
51853;DHT22;37894;53.172;6.598;2023-09-30T11:01:52;18.20;99.90
51853;DHT22;37894;53.172;6.598;2023-09-30T11:04:19;18.30;99.90
51853;DHT22;37894;53.172;6.598;2023-09-30T11:06:46;18.30;99.90
51853;DHT22;37894;53.172;6.598;2023-09-30T11:09:19;18.10;99.90
51853;DHT22;37894;53.172;6.598;2023-09-30T11:11:47;18.00;99.90
51853;DHT22;37894;53.172;6.598;2023-09-30T11:14:27;18.00;99.90
51853;DHT22;37894;53.172;6.598;2023-09-30T11:16:56;19.60;99.90
51853;DHT22;37894;53.172;6.598;2023-09-30T11:19:22;18.60;99.90
51853;DHT22;37894;53.172;6.598;2023-09-30T11:21:49;18.90;99.90
51853;DHT22;37894;53.172;6.598;2023-09-30T11:24:16;19.20;99.90
51853;DHT22;37894;53.172;6.598;2023-09-30T11:26:44;19.50;99.90
51853;DHT22;37894;53.172;6.598;2023-09-30T11:29:16;20.10;99.90
51853;DHT22;37894;53.172;6.598;2023-09-30T11:31:49;20.00;99.90
51853;DHT22;37894;53.172;6.598;2023-09-30T11:34:16;20.30;99.90
51853;DHT22;37894;53.172;6.598;2023-09-30T11:36:50;20.30;99.90
51853;DHT22;37894;53.172;6.598;2023-09-30T11:39:27;20.20;99.90
51853;DHT22;37894;53.172;6.598;2023-09-30T11:41:53;20.00;99.90
51853;DHT22;37894;53.172;6.598;2023-09-30T11:44:20;19.70;99.90
51853;DHT22;37894;53.172;6.598;2023-09-30T11:46:54;19.50;99.90
51853;DHT22;37894;53.172;6.598;2023-09-30T11:49:52;17.30;99.90
51853;DHT22;37894;53.172;6.598;2023-09-30T11:52:26;19.00;99.90
51853;DHT22;37894;53.172;6.598;2023-09-30T11:54:52;18.80;99.90
51853;DHT22;37894;53.172;6.598;2023-09-30T11:57:18;18.40;99.90
51853;DHT22;37894;53.172;6.598;2023-09-30T11:59:45;18.40;99.90
51853;DHT22;37894;53.172;6.598;2023-09-30T12:02:15;19.00;99.90
51853;DHT22;37894;53.172;6.598;2023-09-30T12:04:43;18.20;99.90
51853;DHT22;37894;53.172;6.598;2023-09-30T12:07:09;17.20;99.90
51853;DHT22;37894;53.172;6.598;2023-09-30T12:09:35;17.90;99.90
51853;DHT22;37894;53.172;6.598;2023-09-30T12:12:03;17.90;99.90
51853;DHT22;37894;53.172;6.598;2023-09-30T12:14:29;17.80;99.90
51853;DHT22;37894;53.172;6.598;2023-09-30T12:16:57;17.70;99.90
51853;DHT22;37894;53.172;6.598;2023-09-30T12:19:22;17.70;99.90
51853;DHT22;37894;53.172;6.598;2023-09-30T12:21:48;17.70;99.90
51853;DHT22;37894;53.172;6.598;2023-09-30T12:24:15;17.80;99.90
51853;DHT22;37894;53.172;6.598;2023-09-30T12:26:48;18.00;99.90
51853;DHT22;37894;53.172;6.598;2023-09-30T12:29:15;18.10;99.90
51853;DHT22;37894;53.172;6.598;2023-09-30T12:31:43;17.50;99.90
51853;DHT22;37894;53.172;6.598;2023-09-30T12:34:09;18.50;99.90
51853;DHT22;37894;53.172;6.598;2023-09-30T12:36:35;18.60;99.90
51853;DHT22;37894;53.172;6.598;2023-09-30T12:39:00;18.70;99.90
51853;DHT22;37894;53.172;6.598;2023-09-30T12:41:26;18.80;99.90
51853;DHT22;37894;53.172;6.598;2023-09-30T12:43:52;18.90;99.90
51853;DHT22;37894;53.172;6.598;2023-09-30T12:46:18;18.90;99.90
51853;DHT22;37894;53.172;6.598;2023-09-30T12:48:46;18.90;99.90
51853;DHT22;37894;53.172;6.598;2023-09-30T12:51:12;18.90;99.90
51853;DHT22;37894;53.172;6.598;2023-09-30T12:53:38;19.30;99.90
51853;DHT22;37894;53.172;6.598;2023-09-30T12:56:05;19.90;99.90
51853;DHT22;37894;53.172;6.598;2023-09-30T12:58:32;19.20;99.90
51853;DHT22;37894;53.172;6.598;2023-09-30T13:00:57;19.10;99.90
51853;DHT22;37894;53.172;6.598;2023-09-30T13:03:23;19.20;99.90
51853;DHT22;37894;53.172;6.598;2023-09-30T13:05:49;19.20;99.90
51853;DHT22;37894;53.172;6.598;2023-09-30T13:08:16;19.20;99.90
51853;DHT22;37894;53.172;6.598;2023-09-30T13:10:42;18.80;99.90
51853;DHT22;37894;53.172;6.598;2023-09-30T13:13:09;19.10;99.90
51853;DHT22;37894;53.172;6.598;2023-09-30T13:15:35;19.20;99.90
51853;DHT22;37894;53.172;6.598;2023-09-30T13:18:03;19.20;99.90
51853;DHT22;37894;53.172;6.598;2023-09-30T13:20:30;19.20;99.90
51853;DHT22;37894;53.172;6.598;2023-09-30T13:22:55;19.20;99.90
51853;DHT22;37894;53.172;6.598;2023-09-30T13:25:22;19.20;99.90
51853;DHT22;37894;53.172;6.598;2023-09-30T13:27:48;19.10;99.90
51853;DHT22;37894;53.172;6.598;2023-09-30T13:30:14;19.20;99.90
51853;DHT22;37894;53.172;6.598;2023-09-30T13:32:40;19.40;99.90
51853;DHT22;37894;53.172;6.598;2023-09-30T13:35:06;19.20;99.90
51853;DHT22;37894;53.172;6.598;2023-09-30T13:37:32;19.30;99.90
51853;DHT22;37894;53.172;6.598;2023-09-30T13:40:05;19.30;99.90
51853;DHT22;37894;53.172;6.598;2023-09-30T13:42:34;19.30;99.90
51853;DHT22;37894;53.172;6.598;2023-09-30T13:44:59;19.40;99.90
51853;DHT22;37894;53.172;6.598;2023-09-30T13:47:26;19.40;99.90
51853;DHT22;37894;53.172;6.598;2023-09-30T13:49:52;19.40;99.90
51853;DHT22;37894;53.172;6.598;2023-09-30T13:52:18;19.50;99.90
51853;DHT22;37894;53.172;6.598;2023-09-30T13:54:43;19.60;99.90
51853;DHT22;37894;53.172;6.598;2023-09-30T13:57:09;19.70;99.90
51853;DHT22;37894;53.172;6.598;2023-09-30T13:59:36;19.80;99.90
51853;DHT22;37894;53.172;6.598;2023-09-30T14:02:02;19.80;99.90
51853;DHT22;37894;53.172;6.598;2023-09-30T14:04:31;19.80;99.90
51853;DHT22;37894;53.172;6.598;2023-09-30T14:07:03;19.80;99.90
51853;DHT22;37894;53.172;6.598;2023-09-30T14:09:29;19.80;99.90
51853;DHT22;37894;53.172;6.598;2023-09-30T14:11:55;19.80;99.90
51853;DHT22;37894;53.172;6.598;2023-09-30T14:14:21;19.70;99.90
51853;DHT22;37894;53.172;6.598;2023-09-30T14:16:47;19.70;99.90
51853;DHT22;37894;53.172;6.598;2023-09-30T14:19:13;19.70;99.90
51853;DHT22;37894;53.172;6.598;2023-09-30T14:21:40;19.70;99.90
51853;DHT22;37894;53.172;6.598;2023-09-30T14:24:06;19.60;99.90
51853;DHT22;37894;53.172;6.598;2023-09-30T14:26:38;19.50;99.90
51853;DHT22;37894;53.172;6.598;2023-09-30T14:29:04;19.40;99.90
51853;DHT22;37894;53.172;6.598;2023-09-30T14:31:30;19.40;99.90
51853;DHT22;37894;53.172;6.598;2023-09-30T14:33:56;19.40;99.90
51853;DHT22;37894;53.172;6.598;2023-09-30T14:36:21;19.50;99.90
51853;DHT22;37894;53.172;6.598;2023-09-30T14:38:48;19.30;99.90
51853;DHT22;37894;53.172;6.598;2023-09-30T14:41:15;19.30;99.90
51853;DHT22;37894;53.172;6.598;2023-09-30T14:43:41;19.30;99.90
51853;DHT22;37894;53.172;6.598;2023-09-30T14:46:07;19.30;99.90
51853;DHT22;37894;53.172;6.598;2023-09-30T14:48:36;19.30;99.90
51853;DHT22;37894;53.172;6.598;2023-09-30T14:51:01;18.40;99.90
51853;DHT22;37894;53.172;6.598;2023-09-30T14:53:31;19.30;99.90
51853;DHT22;37894;53.172;6.598;2023-09-30T14:55:57;19.30;99.90
51853;DHT22;37894;53.172;6.598;2023-09-30T14:58:22;19.20;99.90
51853;DHT22;37894;53.172;6.598;2023-09-30T15:00:48;19.20;99.90
51853;DHT22;37894;53.172;6.598;2023-09-30T15:03:14;19.20;99.90
51853;DHT22;37894;53.172;6.598;2023-09-30T15:05:39;19.10;99.90
51853;DHT22;37894;53.172;6.598;2023-09-30T15:08:05;19.10;99.90
51853;DHT22;37894;53.172;6.598;2023-09-30T15:10:34;19.10;99.90
51853;DHT22;37894;53.172;6.598;2023-09-30T15:13:01;19.00;99.90
51853;DHT22;37894;53.172;6.598;2023-09-30T15:15:26;18.80;99.90
51853;DHT22;37894;53.172;6.598;2023-09-30T15:17:52;18.90;99.90
51853;DHT22;37894;53.172;6.598;2023-09-30T15:20:18;18.90;99.90
51853;DHT22;37894;53.172;6.598;2023-09-30T15:22:44;18.60;99.90
51853;DHT22;37894;53.172;6.598;2023-09-30T15:25:10;18.90;99.90
51853;DHT22;37894;53.172;6.598;2023-09-30T15:27:36;18.80;99.90
51853;DHT22;37894;53.172;6.598;2023-09-30T15:30:02;18.70;99.90
51853;DHT22;37894;53.172;6.598;2023-09-30T15:32:28;18.70;99.90
51853;DHT22;37894;53.172;6.598;2023-09-30T15:34:54;18.60;99.90
51853;DHT22;37894;53.172;6.598;2023-09-30T15:37:20;18.60;99.90
51853;DHT22;37894;53.172;6.598;2023-09-30T15:39:46;18.20;99.90
51853;DHT22;37894;53.172;6.598;2023-09-30T15:42:13;18.50;99.90
51853;DHT22;37894;53.172;6.598;2023-09-30T15:44:39;18.50;99.90
51853;DHT22;37894;53.172;6.598;2023-09-30T15:47:06;18.40;99.90
51853;DHT22;37894;53.172;6.598;2023-09-30T15:49:32;18.40;99.90
51853;DHT22;37894;53.172;6.598;2023-09-30T15:51:58;18.60;99.90
51853;DHT22;37894;53.172;6.598;2023-09-30T15:54:24;18.20;99.90
51853;DHT22;37894;53.172;6.598;2023-09-30T15:56:50;18.00;99.90
51853;DHT22;37894;53.172;6.598;2023-09-30T15:59:15;18.10;99.90
51853;DHT22;37894;53.172;6.598;2023-09-30T16:01:41;18.10;99.90
51853;DHT22;37894;53.172;6.598;2023-09-30T16:04:07;18.00;99.90
51853;DHT22;37894;53.172;6.598;2023-09-30T16:06:32;18.00;99.90
51853;DHT22;37894;53.172;6.598;2023-09-30T16:08:58;17.90;99.90
51853;DHT22;37894;53.172;6.598;2023-09-30T16:11:25;17.90;99.90
51853;DHT22;37894;53.172;6.598;2023-09-30T16:13:52;17.80;99.90
51853;DHT22;37894;53.172;6.598;2023-09-30T16:16:18;17.80;99.90
51853;DHT22;37894;53.172;6.598;2023-09-30T16:18:44;17.70;99.90
51853;DHT22;37894;53.172;6.598;2023-09-30T16:21:10;17.70;99.90
51853;DHT22;37894;53.172;6.598;2023-09-30T16:23:36;17.60;99.90
51853;DHT22;37894;53.172;6.598;2023-09-30T16:26:02;17.60;99.90
51853;DHT22;37894;53.172;6.598;2023-09-30T16:28:28;17.50;99.90
51853;DHT22;37894;53.172;6.598;2023-09-30T16:30:54;17.20;99.90
51853;DHT22;37894;53.172;6.598;2023-09-30T16:33:21;17.50;99.90
51853;DHT22;37894;53.172;6.598;2023-09-30T16:35:54;17.40;99.90
51853;DHT22;37894;53.172;6.598;2023-09-30T16:38:21;17.40;99.90
51853;DHT22;37894;53.172;6.598;2023-09-30T16:40:50;17.10;99.90
51853;DHT22;37894;53.172;6.598;2023-09-30T16:43:16;17.30;99.90
51853;DHT22;37894;53.172;6.598;2023-09-30T16:45:43;17.20;99.90
51853;DHT22;37894;53.172;6.598;2023-09-30T16:48:09;17.20;99.90
51853;DHT22;37894;53.172;6.598;2023-09-30T16:50:36;17.70;99.90
51853;DHT22;37894;53.172;6.598;2023-09-30T16:53:02;17.10;99.90
51853;DHT22;37894;53.172;6.598;2023-09-30T16:55:28;16.30;99.90
51853;DHT22;37894;53.172;6.598;2023-09-30T16:57:54;17.00;99.90
51853;DHT22;37894;53.172;6.598;2023-09-30T17:00:21;17.00;99.90
51853;DHT22;37894;53.172;6.598;2023-09-30T17:02:47;17.00;99.90
51853;DHT22;37894;53.172;6.598;2023-09-30T17:05:14;16.80;99.90
51853;DHT22;37894;53.172;6.598;2023-09-30T17:07:40;16.80;99.90
51853;DHT22;37894;53.172;6.598;2023-09-30T17:10:06;16.80;99.90
51853;DHT22;37894;53.172;6.598;2023-09-30T17:12:34;16.70;99.90
51853;DHT22;37894;53.172;6.598;2023-09-30T17:15:01;16.70;99.90
51853;DHT22;37894;53.172;6.598;2023-09-30T17:17:31;16.60;99.90
51853;DHT22;37894;53.172;6.598;2023-09-30T17:19:57;16.60;99.90
51853;DHT22;37894;53.172;6.598;2023-09-30T17:22:22;16.60;99.90
51853;DHT22;37894;53.172;6.598;2023-09-30T17:24:48;16.50;99.90
51853;DHT22;37894;53.172;6.598;2023-09-30T17:27:14;16.30;99.90
51853;DHT22;37894;53.172;6.598;2023-09-30T17:29:40;16.40;99.90
51853;DHT22;37894;53.172;6.598;2023-09-30T17:32:06;17.10;99.90
51853;DHT22;37894;53.172;6.598;2023-09-30T17:34:33;16.30;99.90
51853;DHT22;37894;53.172;6.598;2023-09-30T17:37:02;16.20;99.90
51853;DHT22;37894;53.172;6.598;2023-09-30T17:39:28;16.20;99.90
51853;DHT22;37894;53.172;6.598;2023-09-30T17:41:54;16.20;99.90
51853;DHT22;37894;53.172;6.598;2023-09-30T17:44:21;16.10;99.90
51853;DHT22;37894;53.172;6.598;2023-09-30T17:46:47;16.10;99.90
51853;DHT22;37894;53.172;6.598;2023-09-30T17:49:13;16.10;99.90
51853;DHT22;37894;53.172;6.598;2023-09-30T17:51:39;16.10;99.90
51853;DHT22;37894;53.172;6.598;2023-09-30T17:54:05;16.00;99.90
51853;DHT22;37894;53.172;6.598;2023-09-30T17:56:31;15.70;99.90
51853;DHT22;37894;53.172;6.598;2023-09-30T17:58:57;15.90;99.90
51853;DHT22;37894;53.172;6.598;2023-09-30T18:01:22;16.70;99.90
51853;DHT22;37894;53.172;6.598;2023-09-30T18:03:50;15.90;99.90
51853;DHT22;37894;53.172;6.598;2023-09-30T18:06:16;15.90;99.90
51853;DHT22;37894;53.172;6.598;2023-09-30T18:08:43;15.90;99.90
51853;DHT22;37894;53.172;6.598;2023-09-30T18:11:09;16.00;99.90
51853;DHT22;37894;53.172;6.598;2023-09-30T18:13:36;15.80;99.90
51853;DHT22;37894;53.172;6.598;2023-09-30T18:16:02;14.00;99.90